Meath Environmental Platform

Observations for Trim Patrick St

Time AQI Temp °C Hum % Pres Pa CO μg/m³ H₂S μg/m³ NO μg/m³ NO₂ μg/m³ O₃ μg/m³ SO₂ μg/m³ PM1 μg/m³ PM2.5 μg/m³ PM10 μg/m³
Wednesday 26 August 2026
19:13 3 26.2 51 69,477 0 30.71 0.98 70.15 114.7 9.8 8 13.94 15.33
19:12 3 26.2 51 69,442 0 32.26 1.07 63.05 141.84 10.26 6.29 12.44 13.68
19:11 3 26.4 51 69,397 0 32.84 0.98 60.4 155.52 10.76 7.14 13.23 14.56
19:10 3 26.5 50 69,345 0 30.12 1.13 49.81 157.54 10.03 8 14.02 15.42
19:09 3 26.6 50 69,334 0 29.96 1.06 39.45 165.49 10.63 6.29 14.05 15.45
19:08 3 26.7 50 69,292 0 29.4 1.1 53.54 143.51 10.37 5.43 10.25 11.28
19:07 3 26.8 50 69,267 0 31.34 1 45.32 164.29 11.25 8 14.84 16.32
19:06 3 26.9 50 69,242 0 32.64 0.86 42.04 173.8 11.57 9.71 14.84 16.33
19:05 3 27 49 69,204 0 31.2 0.88 37.2 170.45 11.32 7.14 13.35 14.68
19:04 3 27 49 69,185 0 33.01 1.01 41.64 181.15 11.64 7.14 13.38 14.72
19:03 3 27.1 48 69,165 0 31.73 1.03 48.75 162.55 11.28 7.14 13.41 14.75
19:02 3 27.2 48 69,169 0 32.64 1.03 56.75 143.56 11.79 8 14.19 15.61
19:01 3 27.3 48 69,149 0 32.18 1.17 50.81 172.82 11.84 7.14 14.22 15.65
18:59 3 27.6 47 69,106 0 28.28 1.08 29.06 174.4 12.43 6.29 12.73 14
18:58 3 27.7 46 69,104 0 27.95 1.15 36.16 170.37 12.28 6.29 11.27 12.39
18:57 3 27.8 46 69,108 0 24 1.26 29.06 164.57 12.11 6.29 12.06 13.27
18:56 3 28 46 69,116 0 23.43 1.19 26.38 162.74 12.82 7.14 12.84 14.12
18:53 3 28.5 45 69,124 0 16.56 1.29 23.9 156.02 12.31 7.14 12.91 14.2
18:50 2 29.1 44 69,130 0 10.64 1.44 19.93 127.16 12.52 7.14 14.59 16.05
18:49 2 29.3 43 69,147 0 9.28 1.36 23.07 119.7 13.22 6.29 12.31 13.54